createdAt,value
2018-08-11T00:00:05.625Z,98422.68
2018-08-11T00:00:37.205Z,98422.69
2018-08-11T00:01:08.799Z,98427.74
2018-08-11T00:01:40.387Z,98425.19
2018-08-11T00:02:12.007Z,98422.68
2018-08-11T00:02:43.618Z,98424.33
2018-08-11T00:03:15.217Z,98429.88
2018-08-11T00:03:46.823Z,98425.61
2018-08-11T00:04:18.445Z,98429.51
2018-08-11T00:04:50.022Z,98433.78
2018-08-11T00:05:21.662Z,98433.84
2018-08-11T00:05:53.257Z,98428.34
2018-08-11T00:06:24.847Z,98430.48
2018-08-11T00:06:56.435Z,98427.92
2018-08-11T00:07:28.007Z,98429.63
2018-08-11T00:07:59.631Z,98428.77
2018-08-11T00:08:31.205Z,98426.15
2018-08-11T00:09:02.791Z,98421.90
2018-08-11T00:09:34.380Z,98430.05
2018-08-11T00:10:05.973Z,98431.75
2018-08-11T00:10:37.564Z,98422.75
2018-08-11T00:11:09.150Z,98402.61
2018-08-11T00:11:40.775Z,98421.15
2018-08-11T00:12:12.363Z,98426.27
2018-08-11T00:12:43.999Z,98422.43
2018-08-11T00:13:15.589Z,98422.69
2018-08-11T00:13:47.181Z,98422.68
2018-08-11T00:14:18.799Z,98423.05
2018-08-11T00:14:50.393Z,98420.44
2018-08-11T00:15:21.983Z,98426.79
2018-08-11T00:15:53.567Z,98426.83
2018-08-11T00:16:25.166Z,98420.74
2018-08-11T00:16:56.772Z,98421.98
2018-08-11T00:17:28.395Z,98419.36
2018-08-11T00:17:59.975Z,98424.48
2018-08-11T00:18:31.609Z,98416.84
2018-08-11T00:19:03.247Z,98422.44
2018-08-11T00:19:34.841Z,98419.48
2018-08-11T00:20:06.426Z,98421.66
2018-08-11T00:20:38.006Z,98421.77
2018-08-11T00:21:09.611Z,98420.00
2018-08-11T00:21:41.185Z,98423.90
2018-08-11T00:22:12.778Z,98416.64
2018-08-11T00:22:44.501Z,98417.56
2018-08-11T00:23:16.105Z,98420.07
2018-08-11T00:23:47.691Z,98419.22
2018-08-11T00:24:19.275Z,98414.09
2018-08-11T00:24:50.899Z,98419.22
2018-08-11T00:25:22.664Z,98417.50
2018-08-11T00:25:54.261Z,98418.37
2018-08-11T00:26:25.851Z,98415.37
2018-08-11T00:26:57.445Z,98411.97
2018-08-11T00:27:29.037Z,98413.66
2018-08-11T00:28:00.623Z,98411.17
2018-08-11T00:28:32.212Z,98412.92
2018-08-11T00:29:03.782Z,98408.72
2018-08-11T00:29:35.369Z,98410.48
2018-08-11T00:30:06.960Z,98415.18
2018-08-11T00:30:38.542Z,98415.80
2018-08-11T00:31:10.130Z,98411.77
2018-08-11T00:31:41.710Z,98406.91
2018-08-11T00:32:13.286Z,98408.02
2018-08-11T00:32:44.875Z,98403.20
2018-08-11T00:33:16.468Z,98405.73
2018-08-11T00:33:48.041Z,98406.95
2018-08-11T00:34:19.637Z,98406.93
2018-08-11T00:34:51.220Z,98405.66
2018-08-11T00:35:22.804Z,98411.59
2018-08-11T00:35:54.409Z,98408.59
2018-08-11T00:36:26.058Z,98405.17
2018-08-11T00:36:57.645Z,98404.86
2018-08-11T00:37:29.241Z,98397.50
2018-08-11T00:38:00.837Z,98402.68
2018-08-11T00:38:32.422Z,98403.11
2018-08-11T00:39:04.017Z,98404.44
2018-08-11T00:39:35.599Z,98403.16
2018-08-11T00:40:07.193Z,98405.30
2018-08-11T00:40:38.790Z,98402.30
2018-08-11T00:41:10.385Z,98400.55
2018-08-11T00:41:41.971Z,98403.16
2018-08-11T00:42:13.559Z,98407.04
2018-08-11T00:42:45.152Z,98398.14
2018-08-11T00:43:16.740Z,98399.95
2018-08-11T00:43:48.344Z,98405.09
2018-08-11T00:44:19.941Z,98391.88
2018-08-11T00:44:51.537Z,98398.33
2018-08-11T00:45:23.137Z,98399.23
2018-08-11T00:45:54.764Z,98400.02
2018-08-11T00:46:26.353Z,98397.94
2018-08-11T00:46:57.953Z,98393.63
2018-08-11T00:47:29.548Z,98390.63
2018-08-11T00:48:01.127Z,98395.33
2018-08-11T00:48:32.721Z,98395.40
2018-08-11T00:49:04.347Z,98394.17
2018-08-11T00:49:36.017Z,98396.31
2018-08-11T00:50:07.551Z,98395.04
2018-08-11T00:50:39.139Z,98397.22
2018-08-11T00:51:10.727Z,98396.38
2018-08-11T00:51:42.321Z,98388.86
2018-08-11T00:52:13.904Z,98388.88
2018-08-11T00:52:45.489Z,98392.34
2018-08-11T00:53:17.065Z,98389.34
2018-08-11T00:53:48.701Z,98392.70
2018-08-11T00:54:20.313Z,98393.13
2018-08-11T00:54:51.909Z,98390.14
2018-08-11T00:55:23.487Z,98390.58
2018-08-11T00:55:55.086Z,98390.20
2018-08-11T00:56:26.676Z,98390.64
2018-08-11T00:56:58.249Z,98392.34
2018-08-11T00:57:29.849Z,98385.58
2018-08-11T00:58:01.437Z,98387.30
2018-08-11T00:58:33.065Z,98389.48
2018-08-11T00:59:04.651Z,98387.34
2018-08-11T00:59:36.253Z,98388.19
2018-08-11T01:00:07.840Z,98392.84
2018-08-11T01:00:39.427Z,98388.98
2018-08-11T01:01:11.011Z,98387.39
2018-08-11T01:01:42.595Z,98393.86
2018-08-11T01:02:14.242Z,98382.72
2018-08-11T01:02:45.815Z,98387.41
2018-08-11T01:03:17.398Z,98389.09
2018-08-11T01:03:49.029Z,98384.79
2018-08-11T01:04:20.629Z,98390.80
2018-08-11T01:04:52.245Z,98380.16
2018-08-11T01:05:23.821Z,98383.57
2018-08-11T01:05:55.403Z,98381.92
2018-08-11T01:06:26.977Z,98381.48
2018-08-11T01:06:58.577Z,98382.76
2018-08-11T01:07:30.162Z,98384.84
2018-08-11T01:08:01.747Z,98382.76
2018-08-11T01:08:33.350Z,98374.22
2018-08-11T01:09:04.934Z,98383.18
2018-08-11T01:09:36.519Z,98377.66
2018-08-11T01:10:08.103Z,98381.55
2018-08-11T01:10:39.718Z,98379.04
2018-08-11T01:11:11.317Z,98375.19
2018-08-11T01:11:42.925Z,98383.23
2018-08-11T01:12:14.497Z,98377.27
2018-08-11T01:12:46.080Z,98375.63
2018-08-11T01:13:17.677Z,98377.40
2018-08-11T01:13:49.264Z,98377.81
2018-08-11T01:14:20.857Z,98379.52
2018-08-11T01:14:52.457Z,98379.54
2018-08-11T01:15:24.047Z,98376.17
2018-08-11T01:15:55.636Z,98380.50
2018-08-11T01:16:27.223Z,98380.07
2018-08-11T01:16:58.826Z,98379.27
2018-08-11T01:17:30.397Z,98382.68
2018-08-11T01:18:01.984Z,98379.22
2018-08-11T01:18:33.571Z,98382.63
2018-08-11T01:19:05.146Z,98379.64
2018-08-11T01:19:36.727Z,98376.70
2018-08-11T01:20:08.322Z,98375.86
2018-08-11T01:20:39.924Z,98379.64
2018-08-11T01:21:11.507Z,98377.94
2018-08-11T01:21:43.101Z,98385.19
2018-08-11T01:22:14.721Z,98390.30
2018-08-11T01:22:46.307Z,98385.87
2018-08-11T01:23:17.891Z,98382.76
2018-08-11T01:23:49.476Z,98386.06
2018-08-11T01:24:21.074Z,98385.20
2018-08-11T01:24:52.670Z,98378.37
2018-08-11T01:25:24.255Z,98378.39
2018-08-11T01:25:55.879Z,98380.52
2018-08-11T01:26:27.463Z,98381.78
2018-08-11T01:26:59.073Z,98376.67
2018-08-11T01:27:30.660Z,98377.04
2018-08-11T01:28:02.261Z,98378.69
2018-08-11T01:28:33.865Z,98374.37
2018-08-11T01:29:05.463Z,98374.36
2018-08-11T01:29:37.048Z,98377.73
2018-08-11T01:30:08.645Z,98375.14
2018-08-11T01:30:40.294Z,98367.47
2018-08-11T01:31:11.870Z,98372.55
2018-08-11T01:31:43.455Z,98372.59
2018-08-11T01:32:15.025Z,98375.58
2018-08-11T01:32:46.605Z,98369.11
2018-08-11T01:33:18.190Z,98364.37
2018-08-11T01:33:49.797Z,98367.73
2018-08-11T01:34:21.378Z,98366.39
2018-08-11T01:34:52.973Z,98364.30
2018-08-11T01:35:25.597Z,98367.23
2018-08-11T01:35:57.201Z,98360.88
2018-08-11T01:36:28.805Z,98360.09
2018-08-11T01:37:00.402Z,98362.53
2018-08-11T01:37:32.005Z,98360.84
2018-08-11T01:38:03.591Z,98359.61
2018-08-11T01:38:35.226Z,98360.91
2018-08-11T01:39:06.812Z,98357.91
2018-08-11T01:39:38.409Z,98357.48
2018-08-11T01:40:10.079Z,98360.84
2018-08-11T01:40:41.668Z,98357.47
2018-08-11T01:41:13.265Z,98358.76
2018-08-11T01:41:44.851Z,98363.45
2018-08-11T01:42:16.475Z,98353.16
2018-08-11T01:42:48.075Z,98357.53
2018-08-11T01:43:19.666Z,98355.83
2018-08-11T01:43:51.261Z,98353.64
2018-08-11T01:44:22.927Z,98354.50
2018-08-11T01:44:54.456Z,98353.64
2018-08-11T01:45:26.053Z,98359.23
2018-08-11T01:45:57.641Z,98354.91
2018-08-11T01:46:29.231Z,98355.33
2018-08-11T01:47:00.827Z,98351.52
2018-08-11T01:47:32.429Z,98351.52
2018-08-11T01:48:04.016Z,98354.48
2018-08-11T01:48:35.589Z,98358.77
2018-08-11T01:49:07.176Z,98353.64
2018-08-11T01:49:38.803Z,98351.94
2018-08-11T01:50:10.379Z,98345.52
2018-08-11T01:50:41.955Z,98351.39
2018-08-11T01:51:13.543Z,98343.22
2018-08-11T01:51:45.127Z,98349.59
2018-08-11T01:52:16.721Z,98345.34
2018-08-11T01:52:48.306Z,98348.75
2018-08-11T01:53:19.890Z,98351.31
2018-08-11T01:53:51.484Z,98350.52
2018-08-11T01:54:23.071Z,98351.42
2018-08-11T01:54:54.705Z,98347.61
2018-08-11T01:55:26.291Z,98348.45
2018-08-11T01:55:57.878Z,98351.45
2018-08-11T01:56:29.460Z,98351.44
2018-08-11T01:57:01.057Z,98346.37
2018-08-11T01:57:32.653Z,98346.40
2018-08-11T01:58:04.248Z,98341.28
2018-08-11T01:58:35.849Z,98348.10
2018-08-11T01:59:07.445Z,98341.70
2018-08-11T01:59:39.031Z,98342.12
2018-08-11T02:00:10.661Z,98346.40
2018-08-11T02:00:42.260Z,98342.19
2018-08-11T02:01:13.846Z,98346.01
2018-08-11T02:01:45.441Z,98340.47
2018-08-11T02:02:17.113Z,98345.16
2018-08-11T02:02:48.699Z,98337.96
2018-08-11T02:03:20.301Z,98337.98
2018-08-11T02:03:51.888Z,98338.03
2018-08-11T02:04:23.471Z,98341.94
2018-08-11T02:04:55.066Z,98341.16
2018-08-11T02:05:26.662Z,98340.30
2018-08-11T02:05:58.261Z,98337.36
2018-08-11T02:06:29.861Z,98339.50
2018-08-11T02:07:01.451Z,98340.30
2018-08-11T02:07:33.042Z,98343.28
2018-08-11T02:08:04.619Z,98340.66
2018-08-11T02:08:36.213Z,98341.03
2018-08-11T02:09:07.800Z,98334.25
2018-08-11T02:09:39.377Z,98345.36
2018-08-11T02:10:10.977Z,98339.85
2018-08-11T02:10:42.566Z,98336.46
2018-08-11T02:11:14.172Z,98334.34
2018-08-11T02:11:45.743Z,98338.22
2018-08-11T02:12:17.317Z,98340.80
2018-08-11T02:12:48.917Z,98331.87
2018-08-11T02:13:20.498Z,98329.75
2018-08-11T02:13:52.083Z,98331.83
2018-08-11T02:14:23.677Z,98336.89
2018-08-11T02:14:55.263Z,98333.41
2018-08-11T02:15:26.857Z,98331.33
2018-08-11T02:15:58.433Z,98330.05
2018-08-11T02:16:30.016Z,98330.92
2018-08-11T02:17:01.624Z,98332.68
2018-08-11T02:17:33.277Z,98330.59
2018-08-11T02:18:04.868Z,98337.02
2018-08-11T02:18:36.469Z,98334.45
2018-08-11T02:19:08.060Z,98330.17
2018-08-11T02:19:39.647Z,98334.81
2018-08-11T02:20:11.225Z,98336.04
2018-08-11T02:20:42.847Z,98330.48
2018-08-11T02:21:14.431Z,98331.88
2018-08-11T02:21:46.016Z,98332.39
2018-08-11T02:22:17.603Z,98332.39
2018-08-11T02:22:49.187Z,98327.80
2018-08-11T02:23:20.780Z,98326.95
2018-08-11T02:23:52.371Z,98322.27
2018-08-11T02:24:23.965Z,98320.19
2018-08-11T02:24:55.541Z,98321.11
2018-08-11T02:25:27.186Z,98314.33
2018-08-11T02:25:58.775Z,98320.68
2018-08-11T02:26:30.374Z,98322.44
2018-08-11T02:27:01.981Z,98316.09
2018-08-11T02:27:33.566Z,98313.97
2018-08-11T02:28:05.166Z,98316.11
2018-08-11T02:28:36.764Z,98317.39
2018-08-11T02:29:08.365Z,98323.30
2018-08-11T02:29:39.951Z,98322.00
2018-08-11T02:30:11.540Z,98316.91
2018-08-11T02:30:43.175Z,98322.88
2018-08-11T02:31:14.764Z,98316.91
2018-08-11T02:31:46.351Z,98316.05
2018-08-11T02:32:17.929Z,98313.91
2018-08-11T02:32:49.563Z,98317.31
2018-08-11T02:33:21.151Z,98317.74
2018-08-11T02:33:52.746Z,98319.41
2018-08-11T02:34:24.372Z,98321.10
2018-08-11T02:34:55.940Z,98314.81
2018-08-11T02:35:27.545Z,98313.05
2018-08-11T02:35:59.147Z,98316.03
2018-08-11T02:36:30.722Z,98315.20
2018-08-11T02:37:02.321Z,98315.25
2018-08-11T02:37:33.924Z,98310.20
2018-08-11T02:38:05.579Z,98314.83
2018-08-11T02:38:37.167Z,98315.67
2018-08-11T02:39:08.751Z,98312.69
2018-08-11T02:39:40.325Z,98316.53
2018-08-11T02:40:11.911Z,98313.53
2018-08-11T02:40:43.499Z,98308.80
2018-08-11T02:41:15.078Z,98313.12
2018-08-11T02:41:46.677Z,98314.39
2018-08-11T02:42:18.259Z,98310.19
2018-08-11T02:42:49.846Z,98311.89
2018-08-11T02:43:21.473Z,98311.52
2018-08-11T02:43:53.078Z,98311.48
2018-08-11T02:44:24.672Z,98311.97
2018-08-11T02:44:56.272Z,98312.87
2018-08-11T02:45:27.860Z,98311.48
2018-08-11T02:45:59.457Z,98310.20
2018-08-11T02:46:31.045Z,98316.59
2018-08-11T02:47:02.650Z,98311.12
2018-08-11T02:47:34.248Z,98311.97
2018-08-11T02:48:05.877Z,98314.56
2018-08-11T02:48:37.512Z,98313.73
2018-08-11T02:49:09.111Z,98308.23
2018-08-11T02:49:40.713Z,98307.39
2018-08-11T02:50:12.286Z,98308.67
2018-08-11T02:50:43.881Z,98313.79
2018-08-11T02:51:15.482Z,98310.86
2018-08-11T02:51:47.084Z,98311.70
2018-08-11T02:52:18.673Z,98317.25
2018-08-11T02:52:50.265Z,98302.33
2018-08-11T02:53:21.857Z,98303.66
2018-08-11T02:53:53.475Z,98307.50
2018-08-11T02:54:25.071Z,98307.98
2018-08-11T02:54:56.677Z,98314.31
2018-08-11T02:55:28.301Z,98312.62
2018-08-11T02:55:59.888Z,98310.49
2018-08-11T02:56:31.481Z,98306.72
2018-08-11T02:57:03.061Z,98310.98
2018-08-11T02:57:34.648Z,98308.42
2018-08-11T02:58:06.267Z,98308.47
2018-08-11T02:58:37.855Z,98310.62
2018-08-11T02:59:09.429Z,98304.67
2018-08-11T02:59:41.019Z,98302.20
2018-08-11T03:00:12.590Z,98311.59
2018-08-11T03:00:44.184Z,98309.42
2018-08-11T03:01:15.768Z,98304.30
2018-08-11T03:01:47.398Z,98302.20
2018-08-11T03:02:18.986Z,98304.30
2018-08-11T03:02:50.610Z,98310.68
2018-08-11T03:03:22.204Z,98303.88
2018-08-11T03:03:53.791Z,98288.70
2018-08-11T03:04:25.390Z,98302.59
2018-08-11T03:04:56.989Z,98308.56
2018-08-11T03:05:28.575Z,98304.73
2018-08-11T03:06:00.174Z,98301.32
2018-08-11T03:06:31.799Z,98303.01
2018-08-11T03:07:03.393Z,98301.73
2018-08-11T03:07:34.969Z,98300.89
2018-08-11T03:08:06.557Z,98302.64
2018-08-11T03:08:38.143Z,98298.01
2018-08-11T03:09:09.741Z,98303.98
2018-08-11T03:09:41.327Z,98305.73
2018-08-11T03:10:12.920Z,98302.76
2018-08-11T03:10:44.522Z,98306.55
2018-08-11T03:11:16.163Z,98298.48
2018-08-11T03:11:47.761Z,98301.85
2018-08-11T03:12:19.357Z,98302.70
2018-08-11T03:12:50.943Z,98302.70
2018-08-11T03:13:22.545Z,98303.60
2018-08-11T03:13:54.146Z,98301.47
2018-08-11T03:14:25.743Z,98305.27
2018-08-11T03:14:57.332Z,98299.34
2018-08-11T03:15:28.924Z,98305.31
2018-08-11T03:16:00.511Z,98297.22
2018-08-11T03:16:32.140Z,98304.89
2018-08-11T03:17:03.724Z,98301.05
2018-08-11T03:17:35.314Z,98299.36
2018-08-11T03:18:06.914Z,98304.03
2018-08-11T03:18:38.504Z,98296.80
2018-08-11T03:19:10.105Z,98294.67
2018-08-11T03:19:41.695Z,98302.34
2018-08-11T03:20:13.301Z,98300.69
2018-08-11T03:20:44.897Z,98299.83
2018-08-11T03:21:16.499Z,98301.10
2018-08-11T03:21:48.131Z,98297.23
2018-08-11T03:22:19.733Z,98301.55
2018-08-11T03:22:51.327Z,98299.36
2018-08-11T03:23:22.925Z,98301.52
2018-08-11T03:23:54.516Z,98304.94
2018-08-11T03:24:26.186Z,98300.69
2018-08-11T03:24:57.772Z,98307.55
2018-08-11T03:25:29.359Z,98303.24
2018-08-11T03:26:00.944Z,98305.84
2018-08-11T03:26:32.527Z,98307.14
2018-08-11T03:27:04.107Z,98308.88
2018-08-11T03:27:35.752Z,98310.17
2018-08-11T03:28:07.343Z,98307.25
2018-08-11T03:28:38.946Z,98300.86
2018-08-11T03:29:10.535Z,98304.75
2018-08-11T03:29:42.119Z,98305.22
2018-08-11T03:30:13.721Z,98309.11
2018-08-11T03:30:45.293Z,98304.48
2018-08-11T03:31:16.869Z,98307.03
2018-08-11T03:31:48.465Z,98312.14
2018-08-11T03:32:20.061Z,98310.81
2018-08-11T03:32:51.679Z,98309.00
2018-08-11T03:33:23.267Z,98312.73
2018-08-11T03:33:54.862Z,98313.53
2018-08-11T03:34:26.463Z,98309.69
2018-08-11T03:34:58.050Z,98309.31
2018-08-11T03:35:29.649Z,98306.33
2018-08-11T03:36:01.252Z,98311.02
2018-08-11T03:36:32.841Z,98303.79
2018-08-11T03:37:04.441Z,98304.20
2018-08-11T03:37:36.027Z,98303.84
2018-08-11T03:38:07.664Z,98311.89
2018-08-11T03:38:39.255Z,98312.67
2018-08-11T03:39:10.852Z,98307.45
2018-08-11T03:39:42.453Z,98308.30
2018-08-11T03:40:14.039Z,98301.86
2018-08-11T03:40:45.636Z,98304.88
2018-08-11T03:41:17.229Z,98305.27
2018-08-11T03:41:48.817Z,98304.88
2018-08-11T03:42:20.452Z,98304.94
2018-08-11T03:42:52.035Z,98309.16
2018-08-11T03:43:23.619Z,98300.20
2018-08-11T03:43:55.207Z,98300.63
2018-08-11T03:44:26.791Z,98302.80
2018-08-11T03:44:58.383Z,98297.32
2018-08-11T03:45:29.985Z,98299.03
2018-08-11T03:46:01.598Z,98301.22
2018-08-11T03:46:33.197Z,98293.60
2018-08-11T03:47:04.783Z,98296.22
2018-08-11T03:47:36.421Z,98295.80
2018-08-11T03:48:08.061Z,98300.95
2018-08-11T03:48:39.647Z,98292.39
2018-08-11T03:49:11.225Z,98295.38
2018-08-11T03:49:42.820Z,98294.16
2018-08-11T03:50:14.440Z,98294.09
2018-08-11T03:50:46.037Z,98294.09
2018-08-11T03:51:17.637Z,98297.08
2018-08-11T03:51:49.214Z,98297.56
2018-08-11T03:52:20.807Z,98296.71
2018-08-11T03:52:52.401Z,98300.59
2018-08-11T03:53:24.037Z,98298.45
2018-08-11T03:53:55.630Z,98293.77
2018-08-11T03:54:27.220Z,98305.22
2018-08-11T03:54:58.801Z,98295.05
2018-08-11T03:55:30.582Z,98299.68
2018-08-11T03:56:02.168Z,98295.47
2018-08-11T03:56:33.749Z,98295.91
2018-08-11T03:57:05.331Z,98301.44
2018-08-11T03:57:36.908Z,98311.23
2018-08-11T03:58:08.555Z,98307.83
2018-08-11T03:58:40.146Z,98305.28
2018-08-11T03:59:11.742Z,98301.92
2018-08-11T03:59:43.375Z,98305.80
2018-08-11T04:00:14.959Z,98300.66
2018-08-11T04:00:46.537Z,98301.13
2018-08-11T04:01:18.133Z,98304.97
2018-08-11T04:01:49.730Z,98299.00
2018-08-11T04:02:21.322Z,98295.22
2018-08-11T04:02:52.893Z,98294.35
2018-08-11T04:03:24.476Z,98269.49
2018-08-11T04:03:56.069Z,98294.95
2018-08-11T04:04:27.658Z,98300.77
2018-08-11T04:04:59.308Z,98295.27
2018-08-11T04:05:30.900Z,98292.28
2018-08-11T04:06:02.501Z,98295.69
2018-08-11T04:06:34.106Z,98279.30
2018-08-11T04:07:05.735Z,98290.16
2018-08-11T04:07:37.334Z,98290.58
2018-08-11T04:08:08.928Z,98292.40
2018-08-11T04:08:40.533Z,98289.46
2018-08-11T04:09:12.120Z,98287.75
2018-08-11T04:09:43.721Z,98289.47
2018-08-11T04:10:15.347Z,98288.98
2018-08-11T04:10:46.950Z,98285.58
2018-08-11T04:11:18.598Z,98286.42
2018-08-11T04:11:50.183Z,98288.51
2018-08-11T04:12:21.767Z,98285.95
2018-08-11T04:12:53.339Z,98286.74
2018-08-11T04:13:24.923Z,98282.48
2018-08-11T04:13:56.496Z,98283.34
2018-08-11T04:14:28.084Z,98289.78
2018-08-11T04:14:59.687Z,98284.30
2018-08-11T04:15:31.275Z,98289.89
2018-08-11T04:16:02.872Z,98283.56
2018-08-11T04:16:34.509Z,98283.93
2018-08-11T04:17:06.094Z,98288.14
2018-08-11T04:17:37.675Z,98286.10
2018-08-11T04:18:09.315Z,98281.01
2018-08-11T04:18:40.909Z,98287.97
2018-08-11T04:19:12.507Z,98287.98
2018-08-11T04:19:44.105Z,98286.70
2018-08-11T04:20:15.705Z,98284.94
2018-08-11T04:20:47.305Z,98287.08
2018-08-11T04:21:18.882Z,98291.80
2018-08-11T04:21:50.472Z,98291.80
2018-08-11T04:22:22.068Z,98296.91
2018-08-11T04:22:53.655Z,98289.62
2018-08-11T04:23:25.291Z,98290.00
2018-08-11T04:23:56.880Z,98290.38
2018-08-11T04:24:28.467Z,98291.27
2018-08-11T04:25:00.044Z,98295.53
2018-08-11T04:25:31.632Z,98285.69
2018-08-11T04:26:03.205Z,98291.66
2018-08-11T04:26:34.837Z,98292.50
2018-08-11T04:27:06.410Z,98291.59
2018-08-11T04:27:37.995Z,98295.42
2018-08-11T04:28:09.593Z,98291.13
2018-08-11T04:28:41.170Z,98293.25
2018-08-11T04:29:12.769Z,98295.33
2018-08-11T04:29:44.388Z,98295.32
2018-08-11T04:30:15.974Z,98289.79
2018-08-11T04:30:47.558Z,98289.73
2018-08-11T04:31:19.142Z,98293.94
2018-08-11T04:31:50.721Z,98292.66
2018-08-11T04:32:22.313Z,98292.19
2018-08-11T04:32:53.909Z,98298.56
2018-08-11T04:33:25.505Z,98291.31
2018-08-11T04:33:57.101Z,98295.96
2018-08-11T04:34:28.696Z,98293.40
2018-08-11T04:35:00.342Z,98289.95
2018-08-11T04:35:31.940Z,98286.47
2018-08-11T04:36:03.544Z,98293.93
2018-08-11T04:36:35.141Z,98295.52
2018-08-11T04:37:06.727Z,98290.34
2018-08-11T04:37:38.326Z,98281.64
2018-08-11T04:38:09.902Z,98289.05
2018-08-11T04:38:41.487Z,98292.05
2018-08-11T04:39:13.080Z,98289.17
2018-08-11T04:39:44.704Z,98284.65
2018-08-11T04:40:16.340Z,98284.33
2018-08-11T04:40:47.930Z,98287.90
2018-08-11T04:41:19.577Z,98290.16
2018-08-11T04:41:51.162Z,98291.23
2018-08-11T04:42:22.761Z,98290.48
2018-08-11T04:42:54.353Z,98289.45
2018-08-11T04:43:25.935Z,98295.25
2018-08-11T04:43:57.534Z,98292.11
2018-08-11T04:44:29.123Z,98291.63
2018-08-11T04:45:00.717Z,98282.66
2018-08-11T04:45:32.307Z,98292.42
2018-08-11T04:46:03.940Z,98290.66
2018-08-11T04:46:35.527Z,98293.55
2018-08-11T04:47:07.115Z,98293.50
2018-08-11T04:47:38.713Z,98293.87
2018-08-11T04:48:10.308Z,98297.28
2018-08-11T04:48:41.909Z,98295.64
2018-08-11T04:49:13.500Z,98293.08
2018-08-11T04:49:45.090Z,98291.00
2018-08-11T04:50:16.689Z,98293.49
2018-08-11T04:50:48.289Z,98296.53
2018-08-11T04:51:19.874Z,98291.00
2018-08-11T04:51:51.463Z,98295.20
2018-08-11T04:52:23.057Z,98290.83
2018-08-11T04:52:54.643Z,98291.66
2018-08-11T04:53:26.228Z,98292.52
2018-08-11T04:53:57.810Z,98292.45
2018-08-11T04:54:29.405Z,98296.73
2018-08-11T04:55:01.020Z,98290.45
2018-08-11T04:55:32.617Z,98286.13
2018-08-11T04:56:04.203Z,98292.94
2018-08-11T04:56:35.846Z,98286.98
2018-08-11T04:57:07.431Z,98287.36
2018-08-11T04:57:39.007Z,98290.75
2018-08-11T04:58:10.614Z,98286.93
2018-08-11T04:58:42.241Z,98293.76
2018-08-11T04:59:13.813Z,98287.30
2018-08-11T04:59:45.451Z,98286.37
2018-08-11T05:00:17.039Z,98282.91
2018-08-11T05:00:48.659Z,98284.17
2018-08-11T05:01:20.227Z,98286.33
2018-08-11T05:01:51.811Z,98282.03
2018-08-11T05:02:23.400Z,98282.05
2018-08-11T05:02:55.001Z,98283.83
2018-08-11T05:03:26.597Z,98283.34
2018-08-11T05:03:58.193Z,98279.56
2018-08-11T05:04:29.823Z,98285.58
2018-08-11T05:05:01.414Z,98285.22
2018-08-11T05:05:33.000Z,98284.36
2018-08-11T05:06:04.587Z,98285.66
2018-08-11T05:06:36.175Z,98287.36
2018-08-11T05:07:07.760Z,98286.08
2018-08-11T05:07:39.360Z,98282.66
2018-08-11T05:08:10.985Z,98288.16
2018-08-11T05:08:42.570Z,98291.56
2018-08-11T05:09:14.173Z,98288.95
2018-08-11T05:09:45.749Z,98290.70
2018-08-11T05:10:17.332Z,98287.66
2018-08-11T05:10:48.924Z,98290.20
2018-08-11T05:11:20.521Z,98291.13
2018-08-11T05:11:52.102Z,98288.56
2018-08-11T05:12:23.691Z,98313.25
2018-08-11T05:12:55.289Z,98286.00
2018-08-11T05:13:26.940Z,98289.86
2018-08-11T05:13:58.523Z,98290.27
2018-08-11T05:14:30.097Z,98290.32
2018-08-11T05:15:01.683Z,98286.02
2018-08-11T05:15:33.293Z,98283.92
2018-08-11T05:16:04.879Z,98289.48
2018-08-11T05:16:36.473Z,98281.76
2018-08-11T05:17:08.068Z,98281.81
2018-08-11T05:17:39.645Z,98282.23
2018-08-11T05:18:11.231Z,98281.38
2018-08-11T05:18:42.816Z,98285.22
2018-08-11T05:19:14.413Z,98288.14
2018-08-11T05:19:46.015Z,98282.61
2018-08-11T05:20:17.603Z,98279.20
2018-08-11T05:20:49.184Z,98286.39
2018-08-11T05:21:20.762Z,98285.58
2018-08-11T05:21:52.357Z,98283.88
2018-08-11T05:22:23.933Z,98283.81
2018-08-11T05:22:55.525Z,98284.72
2018-08-11T05:23:27.125Z,98282.16
2018-08-11T05:23:58.707Z,98282.61
2018-08-11T05:24:30.318Z,98278.34
2018-08-11T05:25:01.910Z,98282.97
2018-08-11T05:25:33.509Z,98280.42
2018-08-11T05:26:05.095Z,98283.39
2018-08-11T05:26:36.691Z,98283.52
2018-08-11T05:27:08.313Z,98284.42
2018-08-11T05:27:39.908Z,98289.53
2018-08-11T05:28:11.495Z,98287.42
2018-08-11T05:28:43.081Z,98284.91
2018-08-11T05:29:14.672Z,98284.84
2018-08-11T05:29:46.271Z,98284.85
2018-08-11T05:30:17.853Z,98280.16
2018-08-11T05:30:49.445Z,98279.37
2018-08-11T05:31:21.023Z,98285.23
2018-08-11T05:31:52.622Z,98281.81
2018-08-11T05:32:24.266Z,98281.81
2018-08-11T05:32:55.865Z,98282.28
2018-08-11T05:33:27.456Z,98289.91
2018-08-11T05:33:59.103Z,98290.33
2018-08-11T05:34:30.695Z,98282.25
2018-08-11T05:35:02.299Z,98286.97
2018-08-11T05:35:33.904Z,98283.14
2018-08-11T05:36:05.486Z,98284.85
2018-08-11T05:36:37.085Z,98281.49
2018-08-11T05:37:08.661Z,98288.27
2018-08-11T05:37:40.257Z,98284.05
2018-08-11T05:38:11.837Z,98287.04
2018-08-11T05:38:43.438Z,98289.18
2018-08-11T05:39:15.099Z,98288.75
2018-08-11T05:39:46.686Z,98284.00
2018-08-11T05:40:18.265Z,98285.75
2018-08-11T05:40:49.856Z,98287.04
2018-08-11T05:41:21.447Z,98284.48
2018-08-11T05:41:53.028Z,98285.34
2018-08-11T05:42:24.614Z,98281.49
2018-08-11T05:42:56.253Z,98277.71
2018-08-11T05:43:27.839Z,98276.45
2018-08-11T05:43:59.433Z,98283.64
2018-08-11T05:44:31.023Z,98283.20
2018-08-11T05:45:02.620Z,98281.02
2018-08-11T05:45:34.228Z,98276.86
2018-08-11T05:46:05.832Z,98284.48
2018-08-11T05:46:37.417Z,98282.72
2018-08-11T05:47:09.000Z,98282.22
2018-08-11T05:47:40.596Z,98279.62
2018-08-11T05:48:12.232Z,98277.86
2018-08-11T05:48:43.829Z,98281.25
2018-08-11T05:49:15.423Z,98285.52
2018-08-11T05:49:47.047Z,98284.98
2018-08-11T05:50:18.613Z,98283.69
2018-08-11T05:50:50.195Z,98281.45
2018-08-11T05:51:21.796Z,98286.99
2018-08-11T05:51:53.384Z,98285.66
2018-08-11T05:52:24.967Z,98278.82
2018-08-11T05:52:56.562Z,98281.39
2018-08-11T05:53:28.142Z,98283.09
2018-08-11T05:53:59.771Z,98280.09
2018-08-11T05:54:31.370Z,98279.67
2018-08-11T05:55:02.998Z,98289.00
2018-08-11T05:55:34.606Z,98276.73
2018-08-11T05:56:06.199Z,98280.95
2018-08-11T05:56:37.769Z,98279.26
2018-08-11T05:57:09.365Z,98278.70
2018-08-11T05:57:40.965Z,98278.14
2018-08-11T05:58:12.561Z,98278.03
2018-08-11T05:58:44.161Z,98277.09
2018-08-11T05:59:15.790Z,98280.45
2018-08-11T05:59:47.365Z,98274.97
2018-08-11T06:00:18.946Z,98285.58
2018-08-11T06:00:51.547Z,98274.16
2018-08-11T06:01:23.145Z,98276.67
2018-08-11T06:01:54.745Z,98276.17
2018-08-11T06:02:26.331Z,98268.00
2018-08-11T06:02:57.920Z,98280.75
2018-08-11T06:03:29.520Z,98277.38
2018-08-11T06:04:01.177Z,98274.84
2018-08-11T06:04:32.777Z,98283.36
2018-08-11T06:05:04.363Z,98280.75
2018-08-11T06:05:35.947Z,98278.62
2018-08-11T06:06:07.525Z,98278.62
2018-08-11T06:06:39.127Z,98280.30
2018-08-11T06:07:10.726Z,98279.02
2018-08-11T06:07:42.325Z,98278.17
2018-08-11T06:08:13.900Z,98274.34
2018-08-11T06:08:45.492Z,98279.39
2018-08-11T06:09:17.116Z,98281.10
2018-08-11T06:09:48.697Z,98278.17
2018-08-11T06:10:20.301Z,98284.52
2018-08-11T06:10:51.892Z,98282.83